createdAt,value
2018-10-11T00:00:18.017Z,987.49
2018-10-11T00:01:17.940Z,987.45
2018-10-11T00:02:17.869Z,987.43
2018-10-11T00:03:17.791Z,987.44
2018-10-11T00:04:17.715Z,987.36
2018-10-11T00:05:17.643Z,987.31
2018-10-11T00:06:17.565Z,987.31
2018-10-11T00:07:17.491Z,987.34
2018-10-11T00:08:17.414Z,987.35
2018-10-11T00:09:17.340Z,987.33
2018-10-11T00:10:17.314Z,987.32
2018-10-11T00:11:17.190Z,987.37
2018-10-11T00:12:17.114Z,987.40
2018-10-11T00:13:17.042Z,987.41
2018-10-11T00:14:17.014Z,987.46
2018-10-11T00:15:16.891Z,987.51
2018-10-11T00:16:16.814Z,987.51
2018-10-11T00:17:16.739Z,987.48
2018-10-11T00:18:16.665Z,987.47
2018-10-11T00:19:16.592Z,987.51
2018-10-11T00:20:16.515Z,987.50
2018-10-11T00:21:16.441Z,987.47
2018-10-11T00:22:16.366Z,987.47
2018-10-11T00:23:16.291Z,987.45
2018-10-11T00:24:16.216Z,987.41
2018-10-11T00:25:16.141Z,987.44
2018-10-11T00:26:16.068Z,987.45
2018-10-11T00:27:15.992Z,987.42
2018-10-11T00:28:15.918Z,987.47
2018-10-11T00:29:15.844Z,987.49
2018-10-11T00:30:15.769Z,987.52
2018-10-11T00:31:15.695Z,987.57
2018-10-11T00:32:15.670Z,987.57
2018-10-11T00:33:15.545Z,987.59
2018-10-11T00:34:15.470Z,987.61
2018-10-11T00:35:15.395Z,987.59
2018-10-11T00:36:15.319Z,987.62
2018-10-11T00:37:15.245Z,987.62
2018-10-11T00:38:15.171Z,987.60
2018-10-11T00:39:15.095Z,987.67
2018-10-11T00:40:15.022Z,987.61
2018-10-11T00:41:14.946Z,987.67
2018-10-11T00:42:14.870Z,987.61
2018-10-11T00:43:14.799Z,987.62
2018-10-11T00:44:14.722Z,987.62
2018-10-11T00:45:14.648Z,987.58
2018-10-11T00:46:14.573Z,987.53
2018-10-11T00:47:14.499Z,987.52
2018-10-11T00:48:14.421Z,987.52
2018-10-11T00:49:14.351Z,987.47
2018-10-11T00:50:14.324Z,987.49
2018-10-11T00:51:14.198Z,987.43
2018-10-11T00:52:14.122Z,987.42
2018-10-11T00:53:14.048Z,987.39
2018-10-11T00:54:13.974Z,987.38
2018-10-11T00:55:13.899Z,987.39
2018-10-11T00:56:13.822Z,987.41
2018-10-11T00:57:13.749Z,987.38
2018-10-11T00:58:13.673Z,987.31
2018-10-11T00:59:13.598Z,987.35
2018-10-11T01:00:13.524Z,987.29
2018-10-11T01:01:13.449Z,987.25
2018-10-11T01:02:13.373Z,987.27
2018-10-11T01:03:13.299Z,987.23
2018-10-11T01:04:13.224Z,987.28
2018-10-11T01:05:13.150Z,987.29
2018-10-11T01:06:13.074Z,987.28
2018-10-11T01:07:12.998Z,987.26
2018-10-11T01:08:12.972Z,987.32
2018-10-11T01:09:12.885Z,987.30
2018-10-11T01:10:12.776Z,987.28
2018-10-11T01:11:12.698Z,987.27
2018-10-11T01:12:12.622Z,987.26
2018-10-11T01:13:12.548Z,987.22
2018-10-11T01:14:12.473Z,987.18
2018-10-11T01:15:12.397Z,987.17
2018-10-11T01:16:12.323Z,987.22
2018-10-11T01:17:12.246Z,987.18
2018-10-11T01:18:12.171Z,987.18
2018-10-11T01:19:12.095Z,987.20
2018-10-11T01:20:12.071Z,987.15
2018-10-11T01:21:11.947Z,987.15
2018-10-11T01:22:11.871Z,987.16
2018-10-11T01:23:11.796Z,987.15
2018-10-11T01:24:11.721Z,987.13
2018-10-11T01:25:11.649Z,987.10
2018-10-11T01:26:11.870Z,987.13
2018-10-11T01:27:11.495Z,987.10
2018-10-11T01:28:11.419Z,987.07
2018-10-11T01:29:11.343Z,987.10
2018-10-11T01:30:11.347Z,987.05
2018-10-11T01:31:11.206Z,987.02
2018-10-11T01:32:11.118Z,987.00
2018-10-11T01:33:11.043Z,986.97
2018-10-11T01:34:10.968Z,986.99
2018-10-11T01:35:10.893Z,986.98
2018-10-11T01:36:10.817Z,986.97
2018-10-11T01:37:10.755Z,986.98
2018-10-11T01:38:10.665Z,986.94
2018-10-11T01:39:10.591Z,986.91
2018-10-11T01:40:10.517Z,986.92
2018-10-11T01:41:10.440Z,986.88
2018-10-11T01:42:10.365Z,986.91
2018-10-11T01:43:10.290Z,986.91
2018-10-11T01:44:10.318Z,986.89
2018-10-11T01:45:10.140Z,986.90
2018-10-11T01:46:10.066Z,986.88
2018-10-11T01:47:09.989Z,986.92
2018-10-11T01:48:09.913Z,986.89
2018-10-11T01:49:09.837Z,986.91
2018-10-11T01:50:09.763Z,986.86
2018-10-11T01:51:09.688Z,986.90
2018-10-11T01:52:09.620Z,986.79
2018-10-11T01:53:09.537Z,986.81
2018-10-11T01:54:09.461Z,986.76
2018-10-11T01:55:09.386Z,986.72
2018-10-11T01:56:09.461Z,986.72
2018-10-11T01:57:09.236Z,986.71
2018-10-11T01:58:09.159Z,986.74
2018-10-11T01:59:09.086Z,986.76
2018-10-11T02:00:09.008Z,986.70
2018-10-11T02:01:08.933Z,986.69
2018-10-11T02:02:08.857Z,986.67
2018-10-11T02:03:08.782Z,986.62
2018-10-11T02:04:08.705Z,986.61
2018-10-11T02:05:08.630Z,986.59
2018-10-11T02:06:08.554Z,986.60
2018-10-11T02:07:08.483Z,986.60
2018-10-11T02:08:08.403Z,986.57
2018-10-11T02:09:08.327Z,986.59
2018-10-11T02:10:08.252Z,986.56
2018-10-11T02:11:08.177Z,986.57
2018-10-11T02:12:08.101Z,986.61
2018-10-11T02:13:08.028Z,986.58
2018-10-11T02:14:07.949Z,986.57
2018-10-11T02:15:07.875Z,986.57
2018-10-11T02:16:07.799Z,986.54
2018-10-11T02:17:07.722Z,986.52
2018-10-11T02:18:07.647Z,986.50
2018-10-11T02:19:07.572Z,986.49
2018-10-11T02:20:07.495Z,986.53
2018-10-11T02:21:07.420Z,986.50
2018-10-11T02:22:07.343Z,986.54
2018-10-11T02:23:07.269Z,986.53
2018-10-11T02:24:07.190Z,986.52
2018-10-11T02:25:07.117Z,986.55
2018-10-11T02:26:07.040Z,986.52
2018-10-11T02:27:06.965Z,986.50
2018-10-11T02:28:06.889Z,986.49
2018-10-11T02:29:06.813Z,986.47
2018-10-11T02:30:06.737Z,986.49
2018-10-11T02:31:06.671Z,986.48
2018-10-11T02:32:06.615Z,986.54
2018-10-11T02:33:06.509Z,986.51
2018-10-11T02:34:06.433Z,986.55
2018-10-11T02:35:06.358Z,986.58
2018-10-11T02:36:06.282Z,986.59
2018-10-11T02:37:06.208Z,986.56
2018-10-11T02:38:06.184Z,986.55
2018-10-11T02:39:06.055Z,986.60
2018-10-11T02:40:05.979Z,986.56
2018-10-11T02:41:05.904Z,986.58
2018-10-11T02:42:05.831Z,986.56
2018-10-11T02:43:05.752Z,986.55
2018-10-11T02:44:05.676Z,986.58
2018-10-11T02:45:05.600Z,986.58
2018-10-11T02:46:05.525Z,986.54
2018-10-11T02:47:05.449Z,986.61
2018-10-11T02:48:05.372Z,986.61
2018-10-11T02:49:05.296Z,986.61
2018-10-11T02:50:05.221Z,986.60
2018-10-11T02:51:05.145Z,986.55
2018-10-11T02:52:05.069Z,986.58
2018-10-11T02:53:04.991Z,986.57
2018-10-11T02:54:04.917Z,986.58
2018-10-11T02:55:04.841Z,986.53
2018-10-11T02:56:04.765Z,986.55
2018-10-11T02:57:04.688Z,986.53
2018-10-11T02:58:04.612Z,986.57
2018-10-11T02:59:04.537Z,986.55
2018-10-11T03:00:04.460Z,986.61
2018-10-11T03:01:04.384Z,986.64
2018-10-11T03:02:04.311Z,986.60
2018-10-11T03:03:04.233Z,986.63
2018-10-11T03:04:04.156Z,986.63
2018-10-11T03:05:04.084Z,986.62
2018-10-11T03:06:04.004Z,986.66
2018-10-11T03:07:03.928Z,986.67
2018-10-11T03:08:03.852Z,986.67
2018-10-11T03:09:03.777Z,986.69
2018-10-11T03:10:03.701Z,986.68
2018-10-11T03:11:03.624Z,986.68
2018-10-11T03:12:03.547Z,986.71
2018-10-11T03:13:03.471Z,986.72
2018-10-11T03:14:03.494Z,986.73
2018-10-11T03:15:03.318Z,986.74
2018-10-11T03:16:03.242Z,986.75
2018-10-11T03:17:03.170Z,986.73
2018-10-11T03:18:03.090Z,986.73
2018-10-11T03:19:03.016Z,986.75
2018-10-11T03:20:02.935Z,986.70
2018-10-11T03:21:02.858Z,986.69
2018-10-11T03:22:02.784Z,986.66
2018-10-11T03:23:02.709Z,986.64
2018-10-11T03:24:02.631Z,986.64
2018-10-11T03:25:02.555Z,986.65
2018-10-11T03:26:02.480Z,986.63
2018-10-11T03:27:02.402Z,986.65
2018-10-11T03:28:02.325Z,986.63
2018-10-11T03:29:02.249Z,986.63
2018-10-11T03:30:02.173Z,986.64
2018-10-11T03:31:02.102Z,986.66
2018-10-11T03:32:02.071Z,986.63
2018-10-11T03:33:01.944Z,986.61
2018-10-11T03:34:01.869Z,986.61
2018-10-11T03:35:01.793Z,986.63
2018-10-11T03:36:01.714Z,986.59
2018-10-11T03:37:01.637Z,986.62
2018-10-11T03:38:01.561Z,986.65
2018-10-11T03:39:01.485Z,986.62
2018-10-11T03:40:01.409Z,986.63
2018-10-11T03:41:01.332Z,986.65
2018-10-11T03:42:01.255Z,986.63
2018-10-11T03:43:01.180Z,986.67
2018-10-11T03:44:01.110Z,986.68
2018-10-11T03:45:01.027Z,986.70
2018-10-11T03:46:00.950Z,986.67
2018-10-11T03:47:00.874Z,986.68
2018-10-11T03:48:00.796Z,986.69
2018-10-11T03:49:00.720Z,986.74
2018-10-11T03:50:00.694Z,986.74
2018-10-11T03:51:00.569Z,986.69
2018-10-11T03:52:00.494Z,986.69
2018-10-11T03:53:00.422Z,986.71
2018-10-11T03:54:00.339Z,986.66
2018-10-11T03:55:00.262Z,986.71
2018-10-11T03:56:00.185Z,986.70
2018-10-11T03:57:00.112Z,986.68
2018-10-11T03:58:00.033Z,986.70
2018-10-11T03:58:59.958Z,986.74
2018-10-11T03:59:59.879Z,986.76
2018-10-11T04:00:59.804Z,986.76
2018-10-11T04:01:59.728Z,986.80
2018-10-11T04:02:59.651Z,986.83
2018-10-11T04:03:59.573Z,986.87
2018-10-11T04:04:59.498Z,986.86
2018-10-11T04:05:59.425Z,986.82
2018-10-11T04:06:59.346Z,986.78
2018-10-11T04:07:59.321Z,986.83
2018-10-11T04:08:59.193Z,986.84
2018-10-11T04:09:59.116Z,986.80
2018-10-11T04:10:59.041Z,986.78
2018-10-11T04:11:58.963Z,986.83
2018-10-11T04:12:58.886Z,986.86
2018-10-11T04:13:58.961Z,986.84
2018-10-11T04:14:58.734Z,986.85
2018-10-11T04:15:58.658Z,986.89
2018-10-11T04:16:58.581Z,986.91
2018-10-11T04:17:58.505Z,986.94
2018-10-11T04:18:58.429Z,986.94
2018-10-11T04:19:58.352Z,986.93
2018-10-11T04:20:58.276Z,986.93
2018-10-11T04:21:58.202Z,986.90
2018-10-11T04:22:58.123Z,986.87
2018-10-11T04:23:58.048Z,986.86
2018-10-11T04:24:57.970Z,986.87
2018-10-11T04:25:58.229Z,986.84
2018-10-11T04:26:57.820Z,986.84
2018-10-11T04:27:57.740Z,986.83
2018-10-11T04:28:57.665Z,986.87
2018-10-11T04:29:57.639Z,986.87
2018-10-11T04:30:57.513Z,986.83
2018-10-11T04:31:57.434Z,986.92
2018-10-11T04:32:57.358Z,986.87
2018-10-11T04:33:57.286Z,986.92
2018-10-11T04:34:57.210Z,986.93
2018-10-11T04:35:57.153Z,986.90
2018-10-11T04:36:57.054Z,986.93
2018-10-11T04:37:56.977Z,986.88
2018-10-11T04:38:56.902Z,986.85
2018-10-11T04:39:56.823Z,986.88
2018-10-11T04:40:56.748Z,986.90
2018-10-11T04:41:56.673Z,986.93
2018-10-11T04:42:56.727Z,986.88
2018-10-11T04:43:56.614Z,986.90
2018-10-11T04:44:56.443Z,986.90
2018-10-11T04:45:56.366Z,986.91
2018-10-11T04:46:56.291Z,986.93
2018-10-11T04:47:56.213Z,986.97
2018-10-11T04:48:56.137Z,986.94
2018-10-11T04:49:56.061Z,986.90
2018-10-11T04:50:55.984Z,986.92
2018-10-11T04:51:55.906Z,986.85
2018-10-11T04:52:55.831Z,986.83
2018-10-11T04:53:55.755Z,986.81
2018-10-11T04:54:55.677Z,986.82
2018-10-11T04:55:55.601Z,986.80
2018-10-11T04:56:55.528Z,986.80
2018-10-11T04:57:55.450Z,986.82
2018-10-11T04:58:55.372Z,986.85
2018-10-11T04:59:55.296Z,986.86
2018-10-11T05:00:55.220Z,986.87
2018-10-11T05:01:55.193Z,986.91
2018-10-11T05:02:55.067Z,986.89
2018-10-11T05:03:54.990Z,986.90
2018-10-11T05:04:54.915Z,986.88
2018-10-11T05:05:54.838Z,986.93
2018-10-11T05:06:54.762Z,986.99
2018-10-11T05:07:54.688Z,987.02
2018-10-11T05:08:54.611Z,987.07
2018-10-11T05:09:54.533Z,987.08
2018-10-11T05:10:54.455Z,987.05
2018-10-11T05:11:54.379Z,987.05
2018-10-11T05:12:54.303Z,987.04
2018-10-11T05:13:54.226Z,987.03
2018-10-11T05:14:54.151Z,986.99
2018-10-11T05:15:54.074Z,987.00
2018-10-11T05:16:53.997Z,986.99
2018-10-11T05:17:53.922Z,987.00
2018-10-11T05:18:53.845Z,987.01
2018-10-11T05:19:53.817Z,986.98
2018-10-11T05:20:53.691Z,986.96
2018-10-11T05:21:53.614Z,987.01
2018-10-11T05:22:53.538Z,986.95
2018-10-11T05:23:53.461Z,986.99
2018-10-11T05:24:53.385Z,987.01
2018-10-11T05:25:53.320Z,986.98
2018-10-11T05:26:53.261Z,986.98
2018-10-11T05:27:53.156Z,986.97
2018-10-11T05:28:53.079Z,986.95
2018-10-11T05:29:53.002Z,986.96
2018-10-11T05:30:52.926Z,986.92
2018-10-11T05:31:52.848Z,986.94
2018-10-11T05:32:52.774Z,986.95
2018-10-11T05:33:52.697Z,986.95
2018-10-11T05:34:52.620Z,987.00
2018-10-11T05:35:52.544Z,986.97
2018-10-11T05:36:52.472Z,986.96
2018-10-11T05:37:52.441Z,986.95
2018-10-11T05:38:52.312Z,986.94
2018-10-11T05:39:52.236Z,986.97
2018-10-11T05:40:52.159Z,986.94
2018-10-11T05:41:52.082Z,986.97
2018-10-11T05:42:52.007Z,986.99
2018-10-11T05:43:51.929Z,987.00
2018-10-11T05:44:51.856Z,987.04
2018-10-11T05:45:51.776Z,987.09
2018-10-11T05:46:51.700Z,987.13
2018-10-11T05:47:51.623Z,987.21
2018-10-11T05:48:51.546Z,987.21
2018-10-11T05:49:51.469Z,987.28
2018-10-11T05:50:51.394Z,987.33
2018-10-11T05:51:51.316Z,987.32
2018-10-11T05:52:51.240Z,987.32
2018-10-11T05:53:51.165Z,987.29
2018-10-11T05:54:51.089Z,987.33
2018-10-11T05:55:51.112Z,987.30
2018-10-11T05:56:51.037Z,987.36
2018-10-11T05:57:50.859Z,987.35
2018-10-11T05:58:50.783Z,987.38
2018-10-11T05:59:50.707Z,987.35
2018-10-11T06:00:50.632Z,987.35
2018-10-11T06:01:50.555Z,987.31
2018-10-11T06:02:50.479Z,987.31
2018-10-11T06:03:50.402Z,987.29
2018-10-11T06:04:50.327Z,987.29
2018-10-11T06:05:50.249Z,987.30
2018-10-11T06:06:50.175Z,987.32
2018-10-11T06:07:50.098Z,987.27
2018-10-11T06:08:50.023Z,987.33
2018-10-11T06:09:49.947Z,987.32
2018-10-11T06:10:49.871Z,987.31
2018-10-11T06:11:49.814Z,987.33
2018-10-11T06:12:49.717Z,987.33
2018-10-11T06:13:49.842Z,987.30
2018-10-11T06:14:49.569Z,987.22
2018-10-11T06:15:49.491Z,987.28
2018-10-11T06:16:49.414Z,987.24
2018-10-11T06:17:49.399Z,987.21
2018-10-11T06:18:49.266Z,987.22
2018-10-11T06:19:49.185Z,987.23
2018-10-11T06:20:49.110Z,987.22
2018-10-11T06:21:49.033Z,987.25
2018-10-11T06:22:48.958Z,987.30
2018-10-11T06:23:48.878Z,987.31
2018-10-11T06:24:48.822Z,987.32
2018-10-11T06:25:48.829Z,987.34
2018-10-11T06:26:48.652Z,987.36
2018-10-11T06:27:48.574Z,987.40
2018-10-11T06:28:48.500Z,987.43
2018-10-11T06:29:48.423Z,987.45
2018-10-11T06:30:48.348Z,987.46
2018-10-11T06:31:48.370Z,987.49
2018-10-11T06:32:48.194Z,987.48
2018-10-11T06:33:48.119Z,987.46
2018-10-11T06:34:48.043Z,987.50
2018-10-11T06:35:48.022Z,987.51
2018-10-11T06:36:47.888Z,987.57
2018-10-11T06:37:47.914Z,987.59
2018-10-11T06:38:47.737Z,987.63
2018-10-11T06:39:47.660Z,987.61
2018-10-11T06:40:47.584Z,987.64
2018-10-11T06:41:47.552Z,987.68
2018-10-11T06:42:47.560Z,987.68
2018-10-11T06:43:47.355Z,987.70
2018-10-11T06:44:47.278Z,987.75
2018-10-11T06:45:47.203Z,987.75
2018-10-11T06:46:47.128Z,987.79
2018-10-11T06:47:47.049Z,987.83
2018-10-11T06:48:46.974Z,987.81
2018-10-11T06:49:47.164Z,987.87
2018-10-11T06:50:46.822Z,987.88
2018-10-11T06:51:46.744Z,987.88
2018-10-11T06:52:46.670Z,987.80
2018-10-11T06:53:46.594Z,987.80
2018-10-11T06:54:46.518Z,987.78
2018-10-11T06:55:46.566Z,987.79
2018-10-11T06:56:46.365Z,987.76
2018-10-11T06:57:46.289Z,987.80
2018-10-11T06:58:46.217Z,987.84
2018-10-11T06:59:46.137Z,987.94
2018-10-11T07:00:46.061Z,988.01
2018-10-11T07:01:46.103Z,988.06
2018-10-11T07:02:45.909Z,988.07
2018-10-11T07:03:45.840Z,988.08
2018-10-11T07:04:45.757Z,988.11
2018-10-11T07:05:45.681Z,988.12
2018-10-11T07:06:45.608Z,988.14
2018-10-11T07:07:45.628Z,988.20
2018-10-11T07:08:45.455Z,988.25
2018-10-11T07:09:45.376Z,988.31
2018-10-11T07:10:45.302Z,988.38
2018-10-11T07:11:45.225Z,988.40
2018-10-11T07:12:45.150Z,988.44
2018-10-11T07:13:45.369Z,988.46
2018-10-11T07:14:45.002Z,988.46
2018-10-11T07:15:44.920Z,988.42
2018-10-11T07:16:44.847Z,988.42
2018-10-11T07:17:44.769Z,988.36
2018-10-11T07:18:44.694Z,988.38
2018-10-11T07:19:44.767Z,988.40
2018-10-11T07:20:44.541Z,988.42
2018-10-11T07:21:44.466Z,988.36
2018-10-11T07:22:44.389Z,988.36
2018-10-11T07:23:44.313Z,988.36
2018-10-11T07:24:44.338Z,988.36
2018-10-11T07:25:44.194Z,988.42
2018-10-11T07:26:44.086Z,988.41
2018-10-11T07:27:44.011Z,988.46
2018-10-11T07:28:43.962Z,988.48
2018-10-11T07:29:43.859Z,988.47
2018-10-11T07:30:43.788Z,988.45
2018-10-11T07:31:43.707Z,988.46
2018-10-11T07:32:43.631Z,988.48
2018-10-11T07:33:43.557Z,988.42
2018-10-11T07:34:43.551Z,988.44
2018-10-11T07:35:43.405Z,988.48
2018-10-11T07:36:43.330Z,988.50
2018-10-11T07:37:43.256Z,988.49
2018-10-11T07:38:43.182Z,988.51
2018-10-11T07:39:43.103Z,988.47
2018-10-11T07:40:43.102Z,988.52
2018-10-11T07:41:42.956Z,988.56
2018-10-11T07:42:42.878Z,988.55
2018-10-11T07:43:42.807Z,988.56
2018-10-11T07:44:42.734Z,988.53
2018-10-11T07:45:42.652Z,988.53
2018-10-11T07:46:42.580Z,988.52
2018-10-11T07:47:42.503Z,988.52
2018-10-11T07:48:42.428Z,988.50
2018-10-11T07:49:42.355Z,988.52
2018-10-11T07:50:42.279Z,988.53
2018-10-11T07:51:42.204Z,988.58
2018-10-11T07:52:42.162Z,988.51
2018-10-11T07:53:42.057Z,988.50
2018-10-11T07:54:41.982Z,988.48
2018-10-11T07:55:41.906Z,988.51
2018-10-11T07:56:41.833Z,988.51
2018-10-11T07:57:41.757Z,988.49
2018-10-11T07:58:41.684Z,988.55
2018-10-11T07:59:41.610Z,988.56
2018-10-11T08:00:41.691Z,988.56
2018-10-11T08:01:41.580Z,988.59
2018-10-11T08:02:41.390Z,988.62
2018-10-11T08:03:41.313Z,988.61
2018-10-11T08:04:41.238Z,988.62
2018-10-11T08:05:41.271Z,988.64
2018-10-11T08:06:41.093Z,988.68
2018-10-11T08:07:41.080Z,988.66
2018-10-11T08:08:40.943Z,988.69
2018-10-11T08:09:40.869Z,988.75
2018-10-11T08:10:40.986Z,988.75
2018-10-11T08:11:40.745Z,988.79
2018-10-11T08:12:40.651Z,988.77
2018-10-11T08:13:40.754Z,988.74
2018-10-11T08:14:40.501Z,988.72
2018-10-11T08:15:40.426Z,988.71
2018-10-11T08:16:40.457Z,988.73
2018-10-11T08:17:40.608Z,988.67
2018-10-11T08:18:40.237Z,988.67
2018-10-11T08:19:40.150Z,988.64
2018-10-11T08:20:40.163Z,988.63
2018-10-11T08:21:40.081Z,988.63
2018-10-11T08:22:39.912Z,988.66
2018-10-11T08:23:39.840Z,988.68
2018-10-11T08:24:39.858Z,988.71
2018-10-11T08:25:40.008Z,988.70
2018-10-11T08:26:39.677Z,988.73
2018-10-11T08:27:39.544Z,988.72
2018-10-11T08:28:39.472Z,988.72
2018-10-11T08:29:39.399Z,988.72
2018-10-11T08:30:39.330Z,988.73
2018-10-11T08:31:39.309Z,988.70
2018-10-11T08:32:39.504Z,988.71
2018-10-11T08:33:39.106Z,988.73
2018-10-11T08:34:39.033Z,988.71
2018-10-11T08:35:38.960Z,988.66
2018-10-11T08:36:38.888Z,988.68
2018-10-11T08:37:38.883Z,988.69
2018-10-11T08:38:38.770Z,988.68
2018-10-11T08:39:38.719Z,988.68
2018-10-11T08:40:38.596Z,988.70
2018-10-11T08:41:38.524Z,988.72
2018-10-11T08:42:38.450Z,988.71
2018-10-11T08:43:38.561Z,988.72
2018-10-11T08:44:38.306Z,988.72
2018-10-11T08:45:38.232Z,988.70
2018-10-11T08:46:38.161Z,988.69
2018-10-11T08:47:38.086Z,988.67
2018-10-11T08:48:38.014Z,988.66
2018-10-11T08:49:37.942Z,988.69
2018-10-11T08:50:37.960Z,988.68
2018-10-11T08:51:37.797Z,988.65
2018-10-11T08:52:37.723Z,988.71
2018-10-11T08:53:37.688Z,988.72
2018-10-11T08:54:37.579Z,988.80
2018-10-11T08:55:37.568Z,988.78
2018-10-11T08:56:37.437Z,988.82
2018-10-11T08:57:37.362Z,988.78
2018-10-11T08:58:37.291Z,988.75
2018-10-11T08:59:37.219Z,988.77
2018-10-11T09:00:37.147Z,988.76
2018-10-11T09:01:37.073Z,988.76
2018-10-11T09:02:37.000Z,988.78
2018-10-11T09:03:37.023Z,988.73
2018-10-11T09:04:36.856Z,988.72
2018-10-11T09:05:36.784Z,988.71
2018-10-11T09:06:36.710Z,988.77
2018-10-11T09:07:36.637Z,988.79
2018-10-11T09:08:36.564Z,988.78
2018-10-11T09:09:36.573Z,988.77
2018-10-11T09:10:38.449Z,988.78
2018-10-11T09:11:36.349Z,988.78
2018-10-11T09:12:36.276Z,988.73
2018-10-11T09:13:36.205Z,988.72
2018-10-11T09:14:36.133Z,988.73
2018-10-11T09:15:36.058Z,988.77
2018-10-11T09:16:35.986Z,988.76
2018-10-11T09:17:35.916Z,988.78
2018-10-11T09:18:35.845Z,988.81
2018-10-11T09:19:35.770Z,988.82
2018-10-11T09:20:35.697Z,988.85
2018-10-11T09:21:35.626Z,988.83
2018-10-11T09:22:35.556Z,988.81
2018-10-11T09:23:35.482Z,988.78
2018-10-11T09:24:35.409Z,988.81
2018-10-11T09:25:35.337Z,988.87
2018-10-11T09:26:35.265Z,988.86
2018-10-11T09:27:35.193Z,988.86
2018-10-11T09:28:35.122Z,988.82
2018-10-11T09:29:35.055Z,988.85
2018-10-11T09:30:34.978Z,988.84
2018-10-11T09:31:34.904Z,988.84
2018-10-11T09:32:34.935Z,988.84
2018-10-11T09:33:34.761Z,988.84
2018-10-11T09:34:34.690Z,988.84
2018-10-11T09:35:34.619Z,988.83
2018-10-11T09:36:34.642Z,988.79
2018-10-11T09:37:34.473Z,988.76
2018-10-11T09:38:34.405Z,988.75
2018-10-11T09:39:34.330Z,988.76
2018-10-11T09:40:34.257Z,988.79
2018-10-11T09:41:34.189Z,988.78
2018-10-11T09:42:34.122Z,988.80
2018-10-11T09:43:34.047Z,988.78
2018-10-11T09:44:33.972Z,988.79
2018-10-11T09:45:33.901Z,988.79
2018-10-11T09:46:33.829Z,988.84
2018-10-11T09:47:33.757Z,988.84
2018-10-11T09:48:33.711Z,988.78
2018-10-11T09:49:33.614Z,988.77
2018-10-11T09:50:33.544Z,988.77
2018-10-11T09:51:33.471Z,988.79
2018-10-11T09:52:33.401Z,988.77
2018-10-11T09:53:33.328Z,988.76
2018-10-11T09:54:33.376Z,988.76
2018-10-11T09:55:33.185Z,988.78
2018-10-11T09:56:33.113Z,988.79
2018-10-11T09:57:33.043Z,988.78
2018-10-11T09:58:32.970Z,988.78
2018-10-11T09:59:32.897Z,988.77
2018-10-11T10:00:32.830Z,988.79
2018-10-11T10:01:32.756Z,988.76
2018-10-11T10:02:32.685Z,988.74
2018-10-11T10:03:32.613Z,988.75
2018-10-11T10:04:32.540Z,988.75
2018-10-11T10:05:32.469Z,988.77
2018-10-11T10:06:32.398Z,988.73
2018-10-11T10:07:32.326Z,988.73
2018-10-11T10:08:32.255Z,988.69
2018-10-11T10:09:32.183Z,988.67
2018-10-11T10:10:32.115Z,988.66
2018-10-11T10:11:32.041Z,988.66
2018-10-11T10:12:31.970Z,988.65
2018-10-11T10:13:31.898Z,988.65
2018-10-11T10:14:31.827Z,988.66
2018-10-11T10:15:31.761Z,988.63
2018-10-11T10:16:31.684Z,988.65
2018-10-11T10:17:31.712Z,988.66
2018-10-11T10:18:31.546Z,988.70
2018-10-11T10:19:31.469Z,988.68
2018-10-11T10:20:31.397Z,988.70
2018-10-11T10:21:31.401Z,988.72
2018-10-11T10:22:31.407Z,988.69
2018-10-11T10:23:31.186Z,988.68
2018-10-11T10:24:31.114Z,988.71
2018-10-11T10:25:31.045Z,988.67
2018-10-11T10:26:31.004Z,988.68
2018-10-11T10:27:31.006Z,988.64
2018-10-11T10:28:30.829Z,988.65
2018-10-11T10:29:30.759Z,988.65
2018-10-11T10:30:30.688Z,988.65
2018-10-11T10:31:30.617Z,988.66
2018-10-11T10:32:30.546Z,988.69
2018-10-11T10:33:30.477Z,988.66
2018-10-11T10:34:30.405Z,988.67
2018-10-11T10:35:30.336Z,988.68
2018-10-11T10:36:30.305Z,988.69
2018-10-11T10:37:30.193Z,988.72
2018-10-11T10:38:30.124Z,988.74
2018-10-11T10:39:30.053Z,988.71
2018-10-11T10:40:29.984Z,988.69
2018-10-11T10:41:29.911Z,988.70
2018-10-11T10:42:29.840Z,988.69
2018-10-11T10:43:29.769Z,988.68
2018-10-11T10:44:29.700Z,988.68
2018-10-11T10:45:29.630Z,988.69
2018-10-11T10:46:29.559Z,988.67
2018-10-11T10:47:29.488Z,988.67
2018-10-11T10:48:29.420Z,988.66
2018-10-11T10:49:29.349Z,988.61
2018-10-11T10:50:29.278Z,988.62
2018-10-11T10:51:29.206Z,988.62
2018-10-11T10:52:29.137Z,988.64
2018-10-11T10:53:29.067Z,988.62
2018-10-11T10:54:28.999Z,988.61
2018-10-11T10:55:28.927Z,988.62
2018-10-11T10:56:28.855Z,988.59
2018-10-11T10:57:28.785Z,988.62
2018-10-11T10:58:28.716Z,988.67
2018-10-11T10:59:28.643Z,988.65
2018-10-11T11:00:28.577Z,988.67
2018-10-11T11:01:28.506Z,988.65
2018-10-11T11:02:28.435Z,988.68
2018-10-11T11:03:28.368Z,988.67
2018-10-11T11:04:28.297Z,988.70
2018-10-11T11:05:28.227Z,988.73
2018-10-11T11:06:28.158Z,988.75
2018-10-11T11:07:28.176Z,988.81
2018-10-11T11:08:28.017Z,988.80
2018-10-11T11:09:27.948Z,988.80
2018-10-11T11:10:27.880Z,988.83
2018-10-11T11:11:27.811Z,988.86
2018-10-11T11:12:27.742Z,988.84
2018-10-11T11:13:27.673Z,988.96
2018-10-11T11:14:27.604Z,988.90
2018-10-11T11:15:27.536Z,988.85
2018-10-11T11:16:27.468Z,988.78
2018-10-11T11:17:27.399Z,988.71
2018-10-11T11:18:27.333Z,988.72
2018-10-11T11:19:27.264Z,988.77
2018-10-11T11:20:27.201Z,988.69
2018-10-11T11:21:27.132Z,988.62
2018-10-11T11:22:27.063Z,988.62
2018-10-11T11:23:26.999Z,988.62
2018-10-11T11:24:26.935Z,988.65
2018-10-11T11:25:26.863Z,988.64
2018-10-11T11:26:26.796Z,988.61
2018-10-11T11:27:26.727Z,988.62
2018-10-11T11:28:26.760Z,988.59
2018-10-11T11:29:26.593Z,988.58
2018-10-11T11:30:26.531Z,988.54
2018-10-11T11:31:26.460Z,988.60
2018-10-11T11:32:26.391Z,988.62
2018-10-11T11:33:26.427Z,988.53
2018-10-11T11:34:26.264Z,988.59
2018-10-11T11:35:26.197Z,988.54
2018-10-11T11:36:26.128Z,988.55
2018-10-11T11:37:26.063Z,988.58
2018-10-11T11:38:25.996Z,988.52
2018-10-11T11:39:25.931Z,988.55
2018-10-11T11:40:25.865Z,988.57
2018-10-11T11:41:25.801Z,988.55
2018-10-11T11:42:25.734Z,988.64
2018-10-11T11:43:25.718Z,988.66
2018-10-11T11:44:25.605Z,988.78
2018-10-11T11:45:25.541Z,988.76
2018-10-11T11:46:25.477Z,988.72
2018-10-11T11:47:25.412Z,988.80
2018-10-11T11:48:25.348Z,988.80
2018-10-11T11:49:25.285Z,988.84
2018-10-11T11:50:25.271Z,988.79
2018-10-11T11:51:25.160Z,988.79
2018-10-11T11:52:25.098Z,988.74
2018-10-11T11:53:25.034Z,988.71
2018-10-11T11:54:25.071Z,988.74
2018-10-11T11:55:24.909Z,988.74
2018-10-11T11:56:24.851Z,988.74
2018-10-11T11:57:24.785Z,988.69
2018-10-11T11:58:24.725Z,988.64
2018-10-11T11:59:24.661Z,988.57
2018-10-11T12:00:24.650Z,988.52
2018-10-11T12:01:24.539Z,988.62
2018-10-11T12:02:24.477Z,988.65
2018-10-11T12:03:24.415Z,988.61
2018-10-11T12:04:24.354Z,988.65
2018-10-11T12:05:24.297Z,988.63
2018-10-11T12:06:24.332Z,988.65
2018-10-11T12:07:24.173Z,988.64
2018-10-11T12:08:24.109Z,988.64
2018-10-11T12:09:24.049Z,988.63
2018-10-11T12:10:24.030Z,988.63
2018-10-11T12:11:23.926Z,988.57
2018-10-11T12:12:23.866Z,988.59
2018-10-11T12:13:23.805Z,988.57
2018-10-11T12:14:23.746Z,988.62
2018-10-11T12:15:23.683Z,988.63
2018-10-11T12:16:23.622Z,988.59
2018-10-11T12:17:23.564Z,988.52
2018-10-11T12:18:23.503Z,988.46
2018-10-11T12:19:23.441Z,988.50
2018-10-11T12:20:23.381Z,988.45
2018-10-11T12:21:23.323Z,988.40
2018-10-11T12:22:23.260Z,988.41
2018-10-11T12:23:23.197Z,988.44
2018-10-11T12:24:23.146Z,988.46
2018-10-11T12:25:23.075Z,988.49
2018-10-11T12:26:23.031Z,988.51
2018-10-11T12:27:22.953Z,988.46